WEATHER DATA

TODAY
Time Temp. Dewp. Hum. Wind dir Wind speed Wind gust Bar. 1h Prec. 24h Prec.
00:05 18.9 10.5 58 270 0.3 0.8 1015.1 0.0000 0.0000
00:16 18.8 10.4 58 270 0.3 0.8 1015.1 0.0000 0.0000
00:26 18.7 10.3 58 270 0.3 0.8 1014.9 0.0000 0.0000
00:36 18.7 10.3 58 270 0.3 0.8 1015 0.0000 0.0000
00:46 18.6 10.4 59 270 0.3 0.8 1014.9 0.0000 0.0000
00:56 18.5 10.1 58 270 0.3 0.8 1014.8 0.0000 0.0000
01:07 18.5 10.1 58 270 0.3 0.8 1015 0.0000 0.0000
01:18 18.4 10.3 59 270 0.3 0.8 1015.1 0.0000 0.0000
01:28 18.4 10.3 59 270 0.3 0.8 1015.2 0.0000 0.0000
01:37 18.3 10.2 59 270 0.3 0.8 1015.1 0.0000 0.0000
01:48 18.2 9.8 58 270 0.3 0.8 1015 0.0000 0.0000
01:58 18.1 10.2 60 270 0.3 0.8 1015.1 0.0000 0.0000
02:07 18 9.9 59 270 0.3 0.8 1015.1 0.0000 0.0000
02:18 17.9 10.3 61 270 0.3 0.8 1015.1 0.0000 0.0000
02:28 17.9 10.3 61 270 0.3 0.8 1015 0.0000 0.0000
02:38 17.8 10.2 61 270 0.3 0.8 1014.9 0.0000 0.0000
02:47 17.8 9.9 60 270 0.3 0.8 1014.9 0.0000 0.0000
02:58 17.7 9.8 60 270 0.3 0.8 1014.9 0.0000 0.0000
03:08 17.7 10.1 61 270 0.3 0.8 1014.7 0.0000 0.0000
03:18 17.6 10 61 270 0.3 0.8 1014.6 0.0000 0.0000
03:28 17.5 9.7 60 270 0.3 0.8 1014.5 0.0000 0.0000
03:38 17.5 9.7 60 270 0.3 0.8 1014.5 0.0000 0.0000
03:48 17.4 9.8 61 270 0.3 0.8 1014.5 0.0000 0.0000
03:58 17.4 9.8 61 270 0.3 0.8 1014.5 0.0000 0.0000
04:08 17.3 9.5 60 270 0.3 0.8 1014.4 0.0000 0.0000
04:18 17.3 9.5 60 270 0.3 0.8 1014.3 0.0000 0.0000
04:28 17.3 9.7 61 270 0.3 0.8 1014.3 0.0000 0.0000
04:38 17.3 9.5 60 270 0.3 0.8 1014.3 0.0000 0.0000
04:48 17.3 9.2 59 270 0.3 0.8 1014.4 0.0000 0.0000
04:58 17.3 9.7 61 270 0.3 0.8 1014.3 0.0000 0.0000
05:08 17.3 9.5 60 270 0.3 0.8 1014.4 0.0000 0.0000
05:19 17.3 10 62 270 0.3 0.8 1014.4 0.0000 0.0000
05:30 17.2 10.3 64 270 0.3 0.8 1014.6 0.3031 0.3000
05:40 17 11.3 69 270 0.3 0.8 1014.6 0.9093 0.9000
05:49 16.8 10.9 68 270 0.3 0.8 1014.6 0.9093 0.9000
06:00 16.5 11 70 270 0.3 0.8 1014.6 1.0104 1.0000
06:10 16.3 11 71 270 0.3 0.8 1014.7 1.0104 1.0000
06:20 16.2 10.7 70 270 0.3 0.8 1014.7 1.0104 1.0000
06:30 16.1 10.6 70 270 0.3 0.8 1014.7 0.7072 1.0000
06:40 16 10.8 71 270 0.3 0.8 1014.6 0.1010 1.0000
06:50 16 10.8 71 270 0.3 0.8 1014.7 0.1010 1.0000
07:00 15.8 10.8 72 270 0.3 0.8 1014.7 0.0000 1.0000
07:10 15.8 10.8 72 270 0.3 0.8 1014.7 0.0000 1.0000
07:17 15.7 10.9 73 270 0.3 0.8 1014.7 0.3031 1.3000
07:27 15.6 11 74 270 0.3 0.8 1014.7 0.3031 1.3000
07:37 15.5 11.1 75 270 0.3 0.8 1014.7 0.3031 1.3000
07:46 15.5 11.1 75 270 0.3 0.8 1014.5 0.3031 1.3000
07:57 15.5 11.1 75 270 0.3 0.8 1014.5 0.3031 1.3000
08:07 15.5 11.3 76 270 0.3 0.8 1014.4 0.3031 1.3000
08:17 15.4 11.2 76 270 0.3 0.8 1014.5 0.0000 1.3000
08:27 15.4 11.2 76 270 0.3 0.8 1014.4 0.0000 1.3000
08:37 15.4 11.4 77 270 0.3 0.8 1014.2 0.1010 1.4000
08:47 15.5 11.5 77 270 0.3 0.8 1014.3 0.1010 1.4000
08:57 15.5 11.5 77 270 0.3 0.8 1014.4 0.1010 1.4000
09:07 15.4 11.4 77 270 0.3 0.8 1014.5 0.1010 1.4000
09:17 15.4 11.4 77 270 0.3 0.8 1014.7 0.1010 1.4000
09:27 15.4 11.6 78 270 0.3 0.8 1014.8 0.2020 1.5000
09:37 15.4 11.6 78 270 0.3 0.8 1014.7 0.1010 1.5000
09:47 15.5 11.7 78 270 0.3 0.8 1014.6 0.1010 1.5000
09:56 15.6 12 79 270 0.3 0.8 1014.6 0.3031 1.7000
10:06 15.7 12.1 79 270 0.3 0.8 1014.7 0.3031 1.7000
10:16 15.9 12.3 79 270 0.3 0.8 1014.7 0.2020 1.7000
10:26 16.2 12.6 79 270 0.3 0.8 1014.6 0.2020 1.7000
10:36 16.3 12.5 78 270 0.3 0.8 1014.6 0.2020 1.7000
10:46 16.5 12.7 78 270 0.3 0.8 1014.6 0.2020 1.7000
10:56 16.7 12.8 78 270 0.3 0.8 1014.4 0.0000 1.7000
11:06 17.1 13.2 78 270 0.3 0.8 1014.4 0.0000 1.7000
11:17 17.5 13.6 78 270 0.3 0.8 1014.1 0.0000 1.7000
11:26 17.8 13.7 77 270 0.3 0.8 1014.1 0.0000 1.7000
11:36 17.9 13.6 76 270 0.3 0.8 1014.1 0.0000 1.7000
11:46 18 13.7 76 270 0.3 0.8 1014.1 0.0000 1.7000
11:56 18.1 13.8 76 270 0.3 0.8 1014.2 0.0000 1.7000
12:07 18.2 13.7 75 270 0.3 0.8 1013.9 0.0000 1.7000
12:17 18.2 13.9 76 270 0.3 0.8 1013.9 0.0000 1.7000
12:26 18.3 14 76 270 0.3 0.8 1014 0.0000 1.7000
12:36 18.5 14.2 76 270 0.3 0.8 1014 0.0000 1.7000
12:47 18.7 14.4 76 270 0.3 0.8 1013.9 0.0000 1.7000
12:57 18.9 14.4 75 270 0.3 0.8 1013.6 0.0000 1.7000
13:06 19.1 14.6 75 270 0.3 0.8 1013.5 0.0000 1.7000
13:17 19.4 14.9 75 270 0.3 0.8 1013.5 0.0000 1.7000
13:27 19.8 15 74 270 0.3 0.8 1013.4 0.0000 1.7000
13:36 20.1 15.1 73 270 0.3 0.8 1013.4 0.0000 1.7000
13:46 20.3 15.1 72 270 0.3 0.8 1013.3 0.0000 1.7000
13:57 20.4 15.2 72 270 0.3 0.8 1013.3 0.0000 1.7000
14:07 20.4 15.2 72 270 0.3 0.8 1013 0.0000 1.7000
14:16 20.6 15.2 71 270 0.3 0.8 1012.9 0.0000 1.7000
14:27 20.7 15.3 71 270 0.3 0.8 1012.9 0.0000 1.7000
14:37 20.7 15 70 270 0.3 0.8 1012.7 0.0000 1.7000
14:47 20.8 15.1 70 270 0.3 0.8 1012.7 0.0000 1.7000
14:57 21 15.5 71 270 0.3 0.8 1012.7 0.0000 1.7000
15:07 21.2 15.5 70 270 0.3 0.8 1012.6 0.0000 1.7000
15:17 21.5 15.6 69 270 0.3 0.8 1012.4 0.0000 1.7000
15:27 21.7 15.5 68 270 0.3 0.8 1012.2 0.0000 1.7000
15:37 21.9 15.3 66 270 0.3 0.8 1012.2 0.0000 1.7000
15:47 22 15.4 66 270 0.3 0.8 1012 0.0000 1.7000

DAY STATISTIC

2018-05-24
TEMPERATURE
AVERAGE
17.7
HIGH
22.0
15:47
LOW
15.4
08:17
PRESSURE
AVERAGE
1014.3
HIGH
1015.2
01:28
LOW
1012.0
15:47
DEWPOINT
AVERAGE
11.9
HIGH
15.6
15:17
LOW
9.2
04:48
HUMIDITY
AVERAGE
69
HIGH
79
09:56
LOW
58
00:05
WIND SPEED
AVERAGE
0.3
HIGH
0.3
00:05
WIND GUST
AVERAGE
0.8
HIGH
0.8
00:05
WIND DIRECTION
PREVAILING
W
100%
N
0.0
NE
0.0
E
0.0
SE
0.0
S
0.0
SW
0.0
W
100.0
NW
0.0
PRECIPITATION
RAIN HOUR
1.0
RAIN DAY
1.7
TEMPERATURE (°C)
LOW
15.4
HIGH
22.0
AVERAGE
17.7
PRESSURE (hpa)
LOW
1012.0
HIGH
1015.2
AVERAGE
1014.3
DEVICE